All
Bronzewing Airport (Lake Darlot Western Australia) YBWG Weather
There is no TAF data available at YBWG or any nearby airports.
There is no METAR data available at YBWG. Showing METAR data for YMNE (30 mi W).
Recent WME METAR history (no data for YBWG)
| Date | Time (AWST) | Flight Rules | Wind Dir. | Speed | Type | Height AGL (ft) | Visibility | Temp (°C) | Temp (°F) | Dew Point (°C) | Dew Point (°F) | Rel. Humid. | Pressure | Density Altitude | Remarks |
|---|---|---|---|---|---|---|---|---|---|---|---|---|---|---|---|
| gap in available data | |||||||||||||||
| 06-May | 07:30AM | VFR | 120° | 10 kt | 10000 meters | 12° | 53° | 4° | 39° | 58% | 1027 mb | 1,262 ft | |||
| 06-May | 07:00AM | VFR | 130° | 7 kt | 10000 meters | 10° | 50° | 4° | 39° | 66% | 1026 mb | 1,052 ft | |||
| 06-May | 06:00AM | VFR | 130° | 7 kt | 10000 meters | 10° | 50° | 5° | 41° | 71% | 1026 mb | 1,052 ft | |||
| 06-May | 05:00AM | VFR | 130° | 6 kt | 10000 meters | 10° | 50° | 5° | 41° | 71% | 1025 mb | 1,081 ft | |||
| 06-May | 04:00AM | VFR | 120° | 8 kt | 10000 meters | 11° | 51° | 5° | 41° | 66% | 1025 mb | 1,201 ft | |||
| 06-May | 03:00AM | VFR | 130° | 8 kt | 10000 meters | 11° | 51° | 5° | 41° | 66% | 1025 mb | 1,201 ft | |||
| 06-May | 02:00AM | VFR | 130° | 8 kt | 10000 meters | 12° | 53° | 5° | 41° | 62% | 1025 mb | 1,321 ft | |||
| 06-May | 01:00AM | VFR | 130° | 9 kt | 10000 meters | 12° | 53° | 5° | 41° | 62% | 1025 mb | 1,321 ft | |||
| 06-May | 12:00AM | VFR | 130° | 10 kt | 10000 meters | 13° | 55° | 5° | 41° | 58% | 1025 mb | 1,441 ft | |||
| 05-May | 11:00PM | VFR | 140° | 9 kt | 10000 meters | 14° | 57° | 6° | 42° | 58% | 1025 mb | 1,561 ft | |||
| 05-May | 10:00PM | VFR | 140° | 9 kt | 10000 meters | 14° | 57° | 6° | 42° | 58% | 1025 mb | 1,561 ft | |||
| 05-May | 09:00PM | VFR | 130° | 8 kt | 10000 meters | 15° | 59° | 6° | 42° | 55% | 1025 mb | 1,681 ft | |||
| 05-May | 08:00PM | VFR | 140° | 7 kt | 10000 meters | 16° | 60° | 5° | 41° | 48% | 1025 mb | 1,801 ft | |||
| 05-May | 07:00PM | VFR | 140° | 9 kt | 10000 meters | 17° | 62° | 5° | 41° | 45% | 1024 mb | 1,951 ft | |||
| 05-May | 06:00PM | VFR | 140° | 8 kt | 10000 meters | 18° | 64° | 5° | 41° | 42% | 1024 mb | 2,071 ft | |||
| 05-May | 05:00PM | VFR | 150° | 11 kt | 10000 meters | 19° | 66° | 4° | 39° | 37% | 1023 mb | 2,220 ft | |||
| 05-May | 04:00PM | VFR | 130° | 9 kt | 10000 meters | 20° | 68° | 4° | 39° | 35% | 1023 mb | 2,340 ft | |||
| 05-May | 03:00PM | VFR | 150° | 12 kt | 10000 meters | 21° | 69° | 4° | 39° | 33% | 1023 mb | 2,460 ft | |||
| 05-May | 02:00PM | VFR | 140° | 10 kt | 10000 meters | 20° | 68° | 4° | 39° | 35% | 1023 mb | 2,340 ft | |||
| 05-May | 01:00PM | VFR | 100° | 10 kt | 10000 meters | 20° | 68° | 5° | 41° | 37% | 1023 mb | 2,340 ft | |||
| 05-May | 12:00PM | VFR | 100° | 9 kt | 10000 meters | 19° | 66° | 5° | 41° | 40% | 1024 mb | 2,191 ft | |||
| 05-May | 11:00AM | VFR | 90° | 9 kt | 10000 meters | 18° | 64° | 7° | 44° | 49% | 1025 mb | 2,041 ft | |||
| 05-May | 10:00AM | VFR | 70° | 11 kt | 10000 meters | 16° | 60° | 6° | 42° | 51% | 1026 mb | 1,772 ft | |||
| 05-May | 09:00AM | VFR | 80° | 15 kt | 10000 meters | 15° | 59° | 7° | 44° | 59% | 1026 mb | 1,652 ft | |||
Login
| Your browser is unsupported. upgrade your browser |
